Time;durP1;ratioP1;P1;durP2;ratioP2;P2;SDS_P1;SDS_P2;PMS_P1;PMS_P2;Temp;Humidity;BMP_temperature;BMP_pressure;BME280_temperature;BME280_humidity;BME280_pressure;Samples;Min_cycle;Max_cycle;Signal;HPM_P1;HPM_P2
2023/01/28 00:01:50;;;;;;;7.22;3.22;;;2.80;99.90;;;;;;5083576;28;20490;-38
2023/01/28 00:04:17;;;;;;;7.93;4.20;;;2.90;99.90;;;;;;5082905;28;20085;-41
2023/01/28 00:06:43;;;;;;;9.25;3.90;;;2.90;99.90;;;;;;5086277;28;20056;-40
2023/01/28 00:09:09;;;;;;;9.75;3.17;;;2.90;99.90;;;;;;5088024;28;20073;-45
2023/01/28 00:11:34;;;;;;;7.60;4.00;;;2.80;99.90;;;;;;5083082;28;20065;-38
2023/01/28 00:14:00;;;;;;;6.55;3.47;;;2.80;99.90;;;;;;5081736;28;20051;-40
2023/01/28 00:16:26;;;;;;;6.38;3.30;;;2.80;99.90;;;;;;5082402;28;20476;-40
2023/01/28 00:18:53;;;;;;;10.52;4.13;;;2.80;99.90;;;;;;5084692;28;20035;-40
2023/01/28 00:21:19;;;;;;;8.45;3.95;;;2.80;99.90;;;;;;5077223;28;20035;-43
2023/01/28 00:23:56;;;;;;;7.85;3.65;;;2.80;99.90;;;;;;5080968;28;20036;-41
2023/01/28 00:26:24;;;;;;;7.95;3.72;;;2.80;99.90;;;;;;5080460;28;20040;-41
2023/01/28 00:28:50;;;;;;;7.50;3.78;;;2.80;99.90;;;;;;5081896;28;20093;-42
2023/01/28 00:31:21;;;;;;;7.07;3.53;;;2.80;99.90;;;;;;5084132;28;20039;-39
2023/01/28 00:33:49;;;;;;;7.22;3.22;;;2.70;99.90;;;;;;5076894;28;20040;-43
2023/01/28 00:36:16;;;;;;;6.80;3.55;;;2.70;99.90;;;;;;5078239;28;20524;-43
2023/01/28 00:38:42;;;;;;;6.88;3.85;;;2.70;99.90;;;;;;5080622;28;20409;-42
2023/01/28 00:41:14;;;;;;;5.90;3.00;;;2.70;99.90;;;;;;5080160;28;20100;-42
2023/01/28 00:43:41;;;;;;;7.40;3.60;;;2.70;99.90;;;;;;5081189;28;20492;-41
2023/01/28 00:46:08;;;;;;;7.38;3.92;;;2.70;99.90;;;;;;5087047;28;20500;-42
2023/01/28 00:48:35;;;;;;;6.43;3.55;;;2.60;99.90;;;;;;5065648;28;20040;-39
2023/01/28 00:51:02;;;;;;;5.32;2.80;;;2.70;99.90;;;;;;5081610;28;20136;-42
2023/01/28 00:53:28;;;;;;;7.97;3.92;;;2.70;99.90;;;;;;5082016;28;20131;-41
2023/01/28 00:55:54;;;;;;;5.82;3.35;;;2.60;99.90;;;;;;5083384;28;20122;-44
2023/01/28 00:58:20;;;;;;;6.78;3.47;;;2.70;99.90;;;;;;5086652;28;20039;-40
2023/01/28 01:00:46;;;;;;;6.53;3.47;;;2.70;99.90;;;;;;5086690;28;20028;-40
2023/01/28 01:03:12;;;;;;;5.95;3.42;;;2.60;99.90;;;;;;5084871;28;20498;-42
2023/01/28 01:05:38;;;;;;;6.88;3.47;;;2.60;99.90;;;;;;5085909;28;20130;-42
2023/01/28 01:08:03;;;;;;;5.78;3.53;;;2.60;99.90;;;;;;5089630;28;20059;-42
2023/01/28 01:10:29;;;;;;;5.93;3.20;;;2.60;99.90;;;;;;5083952;28;20040;-39
2023/01/28 01:12:56;;;;;;;5.97;3.30;;;2.60;99.90;;;;;;5088236;28;20040;-42
2023/01/28 01:15:22;;;;;;;5.07;2.85;;;2.60;99.90;;;;;;5080578;28;20135;-41
2023/01/28 01:17:49;;;;;;;5.75;3.35;;;2.60;99.90;;;;;;5089014;28;20036;-40
2023/01/28 01:20:18;;;;;;;5.88;3.42;;;2.60;99.90;;;;;;5084835;28;20115;-41
2023/01/28 01:22:44;;;;;;;5.22;2.95;;;2.60;99.90;;;;;;5085161;28;20048;-45
2023/01/28 01:25:12;;;;;;;8.00;3.20;;;2.60;99.90;;;;;;5085698;28;20105;-43
2023/01/28 01:27:38;;;;;;;5.43;3.45;;;2.60;99.90;;;;;;5088019;28;20119;-42
2023/01/28 01:30:04;;;;;;;5.40;3.30;;;2.60;99.90;;;;;;5088105;28;20028;-42
2023/01/28 01:32:35;;;;;;;5.38;3.05;;;2.60;99.90;;;;;;5085588;28;20378;-41
2023/01/28 01:35:04;;;;;;;6.22;3.60;;;2.50;99.90;;;;;;5084293;28;20043;-42
2023/01/28 01:37:30;;;;;;;5.93;3.00;;;2.60;99.90;;;;;;5090192;28;20093;-41
2023/01/28 01:39:56;;;;;;;6.00;3.22;;;2.50;99.90;;;;;;5086512;28;20044;-45
2023/01/28 01:42:23;;;;;;;4.88;2.67;;;2.50;99.90;;;;;;5075615;28;20119;-40
2023/01/28 01:44:58;;;;;;;6.72;3.55;;;2.50;99.90;;;;;;5086206;28;20078;-43
2023/01/28 01:47:30;;;;;;;7.82;3.95;;;2.50;99.90;;;;;;5089609;28;20480;-44
2023/01/28 01:49:59;;;;;;;7.22;3.97;;;2.60;99.90;;;;;;5083516;28;20028;-43
2023/01/28 01:52:32;;;;;;;7.47;3.80;;;2.60;99.90;;;;;;5083293;28;20235;-39
2023/01/28 01:55:01;;;;;;;5.63;3.17;;;2.50;99.90;;;;;;5084634;28;20036;-41
2023/01/28 01:57:31;;;;;;;5.82;3.42;;;2.50;99.90;;;;;;5069821;28;20063;-43
2023/01/28 02:00:04;;;;;;;5.80;3.17;;;2.50;99.90;;;;;;5083860;28;20150;-40
2023/01/28 02:02:35;;;;;;;6.78;3.45;;;2.50;99.90;;;;;;5082464;28;20055;-42
2023/01/28 02:05:02;;;;;;;7.47;3.58;;;2.50;99.90;;;;;;5082334;28;20039;-42
2023/01/28 02:07:28;;;;;;;6.80;3.80;;;2.50;99.90;;;;;;5080521;28;20042;-43
2023/01/28 02:09:54;;;;;;;6.75;3.70;;;2.50;99.90;;;;;;5085005;28;20036;-42
2023/01/28 02:12:24;;;;;;;7.90;3.50;;;2.50;99.90;;;;;;5083432;28;20404;-40
2023/01/28 02:14:59;;;;;;;5.07;2.65;;;2.50;99.90;;;;;;5085870;28;20093;-40
2023/01/28 02:17:26;;;;;;;6.40;3.40;;;2.50;99.90;;;;;;5084491;28;20121;-42
2023/01/28 02:20:00;;;;;;;6.35;3.30;;;2.50;99.90;;;;;;5083558;28;20043;-41
2023/01/28 02:22:26;;;;;;;6.80;3.53;;;2.50;99.90;;;;;;5087303;28;20074;-41
2023/01/28 02:25:29;;;;;;;5.35;3.03;;;2.50;99.90;;;;;;5088161;28;20063;-40
2023/01/28 02:28:23;;;;;;;7.40;3.25;;;2.40;99.90;;;;;;5084457;28;20588;-48
2023/01/28 02:31:09;;;;;;;5.20;2.60;;;2.40;99.90;;;;;;5087716;28;20092;-44
2023/01/28 02:33:40;;;;;;;6.45;3.22;;;2.40;99.90;;;;;;5083827;28;20519;-41
2023/01/28 02:36:21;;;;;;;5.88;3.13;;;2.40;99.90;;;;;;5085605;28;20131;-42
2023/01/28 02:38:51;;;;;;;6.32;2.75;;;2.40;99.90;;;;;;5079014;28;20046;-39
2023/01/28 02:41:25;;;;;;;5.90;3.17;;;2.40;99.90;;;;;;5085550;28;20072;-41
2023/01/28 02:43:51;;;;;;;6.47;2.97;;;2.30;99.90;;;;;;5085270;28;20040;-43
2023/01/28 02:49:19;;;;;;;5.90;3.20;;;2.30;99.90;;;;;;5084944;28;20067;-42
2023/01/28 02:52:06;;;;;;;8.18;3.30;;;2.30;99.90;;;;;;5088505;28;20088;-41
2023/01/28 02:54:36;;;;;;;6.18;3.15;;;2.30;99.90;;;;;;5084188;28;20043;-39
2023/01/28 02:57:21;;;;;;;6.45;3.42;;;2.30;99.90;;;;;;5082817;28;20055;-42
2023/01/28 02:59:52;;;;;;;6.93;3.40;;;2.20;99.90;;;;;;5084966;28;20536;-42
2023/01/28 03:02:27;;;;;;;6.00;3.35;;;2.20;99.90;;;;;;5088469;28;20123;-41
2023/01/28 03:05:06;;;;;;;5.65;2.80;;;2.20;99.90;;;;;;5078481;28;20522;-40
2023/01/28 03:07:35;;;;;;;5.75;2.90;;;2.20;99.90;;;;;;5051280;28;20071;-42
2023/01/28 03:10:06;;;;;;;6.50;3.40;;;2.20;99.90;;;;;;5078120;28;20119;-41
2023/01/28 03:38:40;;;;;;;7.07;3.50;;;2.10;99.90;;;;;;5084399;28;20399;-42
2023/01/28 03:41:14;;;;;;;6.03;3.42;;;2.00;99.90;;;;;;5086151;28;20040;-41
2023/01/28 03:43:40;;;;;;;6.57;3.65;;;2.10;99.90;;;;;;5069819;28;20489;-43
2023/01/28 03:46:06;;;;;;;6.82;3.45;;;2.10;99.90;;;;;;5087397;28;20044;-40
2023/01/28 03:48:32;;;;;;;8.30;4.45;;;2.10;99.90;;;;;;5086400;28;20035;-41
2023/01/28 03:50:59;;;;;;;7.07;3.95;;;2.00;99.90;;;;;;5088333;28;20040;-42
2023/01/28 03:53:25;;;;;;;8.02;4.05;;;2.00;99.90;;;;;;5085107;28;20153;-41
2023/01/28 03:55:52;;;;;;;7.07;3.63;;;2.00;99.90;;;;;;5085754;28;20107;-40
2023/01/28 03:58:19;;;;;;;7.40;3.90;;;2.00;99.90;;;;;;5085183;28;20084;-40
2023/01/28 04:00:44;;;;;;;6.38;3.50;;;2.00;99.90;;;;;;5083697;28;20485;-44
2023/01/28 04:03:15;;;;;;;7.47;3.47;;;2.00;99.90;;;;;;5084163;28;20098;-42
2023/01/28 04:06:08;;;;;;;6.90;3.35;;;2.00;99.90;;;;;;5079505;28;20031;-38
2023/01/28 04:08:34;;;;;;;9.73;4.28;;;2.00;99.90;;;;;;5080492;28;20071;-40
2023/01/28 04:11:14;;;;;;;8.38;4.22;;;2.00;99.90;;;;;;5083024;28;20034;-41
2023/01/28 04:13:43;;;;;;;7.00;3.80;;;2.00;99.90;;;;;;5086668;28;20091;-42
2023/01/28 04:16:10;;;;;;;5.90;3.30;;;2.00;99.90;;;;;;5084546;28;20040;-41
2023/01/28 04:18:36;;;;;;;9.05;4.30;;;2.00;99.90;;;;;;5090824;28;20078;-42
2023/01/28 04:21:01;;;;;;;7.22;3.65;;;2.00;99.90;;;;;;5080881;28;20068;-40
2023/01/28 04:23:28;;;;;;;8.02;4.13;;;2.00;99.90;;;;;;5089089;28;20476;-43
2023/01/28 04:25:54;;;;;;;7.57;4.15;;;2.00;99.90;;;;;;5089550;28;20035;-43
2023/01/28 04:28:20;;;;;;;7.35;4.30;;;2.00;99.90;;;;;;5083612;28;20052;-41
2023/01/28 04:30:46;;;;;;;7.07;3.70;;;2.00;99.90;;;;;;5088417;28;20127;-41
2023/01/28 04:33:12;;;;;;;7.07;3.78;;;2.00;99.90;;;;;;5089721;28;20039;-40
2023/01/28 04:35:38;;;;;;;7.68;4.07;;;2.00;99.90;;;;;;5087022;28;20093;-40
2023/01/28 04:38:04;;;;;;;7.45;3.80;;;2.00;99.90;;;;;;5082103;28;20028;-41
2023/01/28 04:40:29;;;;;;;7.63;4.10;;;2.00;99.90;;;;;;5069723;28;20036;-42
2023/01/28 04:42:56;;;;;;;7.43;4.10;;;2.00;99.90;;;;;;5088827;28;20119;-40
2023/01/28 04:45:22;;;;;;;8.63;4.38;;;2.00;99.90;;;;;;5083085;28;20477;-41
2023/01/28 04:47:48;;;;;;;8.30;3.60;;;2.00;99.90;;;;;;5085469;28;20032;-46
2023/01/28 04:50:14;;;;;;;7.25;3.65;;;2.00;99.90;;;;;;5082964;28;20098;-40
2023/01/28 04:52:40;;;;;;;6.18;3.75;;;2.00;99.90;;;;;;5089656;28;20117;-40
2023/01/28 04:55:06;;;;;;;8.38;3.70;;;2.00;99.90;;;;;;5089948;28;20056;-41
2023/01/28 04:57:32;;;;;;;7.38;3.92;;;2.00;99.90;;;;;;5088489;28;20111;-41
2023/01/28 04:59:58;;;;;;;6.57;3.60;;;2.00;99.90;;;;;;5084453;28;20120;-41
2023/01/28 05:02:23;;;;;;;7.03;4.07;;;2.00;99.90;;;;;;5089088;28;20043;-40
2023/01/28 05:04:49;;;;;;;10.40;4.68;;;2.00;99.90;;;;;;5086003;28;20039;-43
2023/01/28 05:07:14;;;;;;;8.18;4.18;;;2.00;99.90;;;;;;5086579;28;20644;-41
2023/01/28 05:09:40;;;;;;;9.90;4.32;;;2.00;99.90;;;;;;5085884;28;20090;-41
2023/01/28 05:12:06;;;;;;;9.05;4.30;;;2.00;99.90;;;;;;5083655;28;20040;-41
2023/01/28 05:14:32;;;;;;;7.75;4.05;;;2.00;99.90;;;;;;5091447;28;20040;-39
2023/01/28 05:16:57;;;;;;;6.93;3.85;;;2.00;99.90;;;;;;5088088;28;20451;-41
2023/01/28 05:19:23;;;;;;;9.30;4.47;;;2.00;99.90;;;;;;5088637;28;20032;-39
2023/01/28 05:21:49;;;;;;;7.45;3.90;;;2.00;99.90;;;;;;5085680;28;20031;-40
2023/01/28 05:24:15;;;;;;;7.57;4.10;;;2.00;99.90;;;;;;5068375;28;20497;-41
2023/01/28 05:26:41;;;;;;;8.43;3.80;;;2.00;99.90;;;;;;5084535;28;20070;-41
2023/01/28 05:29:07;;;;;;;7.90;3.75;;;2.00;99.90;;;;;;5082831;28;20523;-39
2023/01/28 05:31:33;;;;;;;8.07;4.03;;;2.00;99.90;;;;;;5084977;28;20119;-42
2023/01/28 05:33:59;;;;;;;7.43;3.85;;;2.00;99.90;;;;;;5090131;28;20044;-42
2023/01/28 05:36:25;;;;;;;8.60;4.30;;;2.00;99.90;;;;;;5089622;28;20485;-45
2023/01/28 05:38:50;;;;;;;9.25;4.15;;;2.00;99.90;;;;;;5083118;28;20039;-41
2023/01/28 05:41:16;;;;;;;7.28;3.90;;;1.90;99.90;;;;;;5086997;28;20576;-40
2023/01/28 05:43:42;;;;;;;6.88;3.83;;;1.90;99.90;;;;;;5086885;28;20271;-44
2023/01/28 05:46:07;;;;;;;8.45;4.93;;;1.90;99.90;;;;;;5082730;28;20086;-39
2023/01/28 05:48:33;;;;;;;8.15;3.78;;;1.90;99.90;;;;;;5087781;28;20039;-40
2023/01/28 05:50:59;;;;;;;8.05;3.97;;;1.90;99.90;;;;;;5082611;28;20047;-40
2023/01/28 05:53:25;;;;;;;8.73;4.43;;;1.90;99.90;;;;;;5080613;28;20040;-44
2023/01/28 05:55:55;;;;;;;7.95;4.28;;;1.90;99.90;;;;;;5084975;28;20154;-41
2023/01/28 05:58:21;;;;;;;7.65;3.92;;;1.90;99.90;;;;;;5085405;28;20032;-40
2023/01/28 06:00:46;;;;;;;7.18;3.53;;;1.90;99.90;;;;;;5084890;28;20032;-43
2023/01/28 06:03:12;;;;;;;8.82;4.57;;;1.90;99.90;;;;;;5066770;28;20210;-39
2023/01/28 06:05:38;;;;;;;9.15;4.05;;;1.90;99.90;;;;;;5083199;28;20126;-41
2023/01/28 06:08:04;;;;;;;10.13;4.68;;;1.90;99.90;;;;;;5086349;28;20111;-39
2023/01/28 06:10:30;;;;;;;7.18;3.97;;;1.90;99.90;;;;;;5087382;28;20145;-41
2023/01/28 06:12:56;;;;;;;8.18;4.28;;;1.90;99.90;;;;;;5070343;28;20040;-38
2023/01/28 06:15:22;;;;;;;9.65;4.63;;;1.90;99.90;;;;;;5081678;28;20132;-42
2023/01/28 06:17:47;;;;;;;9.02;4.75;;;1.90;99.90;;;;;;5085804;28;20032;-39
2023/01/28 06:20:13;;;;;;;8.77;4.20;;;1.90;99.90;;;;;;5090653;28;20374;-48
2023/01/28 06:22:39;;;;;;;7.10;4.05;;;1.80;99.90;;;;;;5082003;28;20033;-39
2023/01/28 06:25:05;;;;;;;8.02;3.80;;;1.80;99.90;;;;;;5084373;28;20495;-38
2023/01/28 06:27:31;;;;;;;7.97;4.13;;;1.80;99.90;;;;;;5088403;28;20043;-41
2023/01/28 06:29:57;;;;;;;8.13;3.65;;;1.80;99.90;;;;;;5085307;28;20063;-40
2023/01/28 06:32:22;;;;;;;7.57;4.18;;;1.80;99.90;;;;;;5088177;28;20056;-39
2023/01/28 06:34:48;;;;;;;7.32;4.05;;;1.80;99.90;;;;;;5087909;28;20032;-38
2023/01/28 06:37:14;;;;;;;10.30;4.75;;;1.80;99.90;;;;;;5086492;28;20036;-39
2023/01/28 06:39:40;;;;;;;8.30;4.10;;;1.80;99.90;;;;;;5080453;28;20035;-41
2023/01/28 06:42:05;;;;;;;9.10;4.60;;;1.80;99.90;;;;;;5080928;28;20059;-39
2023/01/28 06:44:31;;;;;;;8.10;3.58;;;1.80;99.90;;;;;;5083917;28;20036;-39
2023/01/28 06:46:57;;;;;;;10.02;4.97;;;1.70;99.90;;;;;;5083127;28;20042;-40
2023/01/28 06:49:22;;;;;;;9.25;4.75;;;1.70;99.90;;;;;;5079689;28;20044;-39
2023/01/28 06:51:48;;;;;;;8.00;4.45;;;1.70;99.90;;;;;;5084562;28;20056;-41
2023/01/28 06:54:14;;;;;;;8.25;4.32;;;1.70;99.90;;;;;;5084291;28;20051;-47
2023/01/28 06:56:41;;;;;;;9.57;4.30;;;1.70;99.90;;;;;;5069478;28;20040;-41
2023/01/28 06:59:06;;;;;;;7.45;3.90;;;1.70;99.90;;;;;;5085001;28;20067;-39
2023/01/28 07:01:32;;;;;;;7.60;4.00;;;1.80;99.90;;;;;;5079623;28;20230;-45
2023/01/28 07:03:58;;;;;;;8.43;4.47;;;1.80;99.90;;;;;;5084816;28;20032;-40
2023/01/28 07:06:24;;;;;;;8.70;4.25;;;1.80;99.90;;;;;;5084455;28;20047;-39
2023/01/28 07:08:50;;;;;;;9.57;4.80;;;1.80;99.90;;;;;;5084489;28;20059;-43
2023/01/28 07:11:16;;;;;;;7.93;4.22;;;1.70;99.90;;;;;;5080075;28;20048;-41
2023/01/28 07:13:42;;;;;;;7.18;3.85;;;1.70;99.90;;;;;;5087895;28;20076;-41
2023/01/28 07:16:08;;;;;;;9.10;4.40;;;1.70;99.90;;;;;;5079755;28;20044;-40
2023/01/28 07:18:34;;;;;;;8.10;4.32;;;1.70;99.90;;;;;;5082336;28;20039;-39
2023/01/28 07:21:00;;;;;;;8.93;4.40;;;1.70;99.90;;;;;;5084386;28;20112;-41
2023/01/28 07:23:25;;;;;;;7.57;3.78;;;1.70;99.90;;;;;;5084713;28;20028;-40
2023/01/28 07:25:51;;;;;;;6.07;3.20;;;1.70;99.90;;;;;;5081100;28;20039;-37
2023/01/28 07:28:20;;;;;;;8.85;4.30;;;1.70;99.90;;;;;;5082274;28;20036;-36
2023/01/28 07:30:49;;;;;;;8.98;4.22;;;1.70;99.90;;;;;;5083274;28;20044;-36
2023/01/28 07:33:16;;;;;;;6.35;3.40;;;1.70;99.90;;;;;;5078666;28;20047;-38
2023/01/28 07:35:42;;;;;;;7.85;4.03;;;1.70;99.90;;;;;;5080267;28;20537;-36
2023/01/28 07:38:08;;;;;;;7.60;3.95;;;1.70;99.90;;;;;;5086645;28;20036;-36
2023/01/28 07:40:34;;;;;;;9.13;3.50;;;1.70;99.90;;;;;;5075126;28;20517;-37
2023/01/28 07:42:59;;;;;;;8.50;4.40;;;1.70;99.90;;;;;;5083469;28;20493;-37
2023/01/28 07:45:26;;;;;;;6.85;3.85;;;1.70;99.90;;;;;;5068177;28;20085;-36
2023/01/28 07:48:01;;;;;;;9.40;4.93;;;1.60;99.90;;;;;;5066859;28;20485;-36
2023/01/28 07:50:28;;;;;;;9.35;4.18;;;1.60;99.90;;;;;;5086621;28;20061;-37
2023/01/28 07:52:55;;;;;;;8.48;4.32;;;1.60;99.90;;;;;;5084912;28;20056;-38
2023/01/28 07:55:20;;;;;;;9.52;4.53;;;1.60;99.90;;;;;;5090357;28;20064;-37
2023/01/28 07:57:52;;;;;;;10.35;4.22;;;1.60;99.90;;;;;;5089607;28;20070;-37
2023/01/28 08:00:19;;;;;;;10.10;4.63;;;1.60;99.90;;;;;;5085506;28;20039;-39
2023/01/28 08:02:46;;;;;;;9.18;4.70;;;1.50;99.90;;;;;;5082415;28;20338;-37
2023/01/28 08:05:18;;;;;;;8.23;4.15;;;1.50;99.90;;;;;;5084445;28;20044;-36
2023/01/28 08:07:44;;;;;;;6.90;3.17;;;1.50;99.90;;;;;;5084193;28;20040;-38
2023/01/28 08:10:11;;;;;;;8.45;4.30;;;1.50;99.90;;;;;;5088521;28;20553;-36
2023/01/28 08:12:38;;;;;;;8.10;4.32;;;1.40;99.90;;;;;;5091002;28;20035;-36
2023/01/28 08:15:05;;;;;;;7.85;4.43;;;1.40;99.90;;;;;;5089823;28;20047;-38
2023/01/28 08:17:31;;;;;;;10.88;5.18;;;1.40;99.90;;;;;;5071543;28;20119;-36
2023/01/28 08:19:56;;;;;;;9.45;4.78;;;1.40;99.90;;;;;;5087662;28;20198;-56
2023/01/28 08:22:26;;;;;;;8.48;5.00;;;1.30;99.90;;;;;;5086337;28;20629;-41
2023/01/28 08:24:51;;;;;;;11.95;5.15;;;1.20;99.90;;;;;;5088440;28;20036;-39
2023/01/28 08:27:17;;;;;;;10.93;5.40;;;1.20;99.90;;;;;;5087674;28;20044;-41
2023/01/28 08:29:43;;;;;;;11.15;4.60;;;1.10;99.90;;;;;;5086255;28;20036;-41
2023/01/28 08:32:09;;;;;;;16.38;6.65;;;1.10;99.90;;;;;;5088163;28;20051;-39
2023/01/28 08:34:35;;;;;;;14.80;7.25;;;1.00;99.90;;;;;;5080245;28;20135;-39
2023/01/28 08:37:01;;;;;;;16.83;7.70;;;1.10;99.90;;;;;;5091672;28;20120;-41
2023/01/28 08:39:27;;;;;;;25.05;9.77;;;1.00;99.90;;;;;;5050541;28;20086;-41
2023/01/28 08:41:52;;;;;;;24.83;10.00;;;1.10;99.90;;;;;;5085339;28;20460;-40
2023/01/28 08:44:18;;;;;;;23.65;9.40;;;1.20;99.90;;;;;;5084560;28;20069;-43
2023/01/28 08:46:44;;;;;;;19.52;8.88;;;1.20;99.90;;;;;;5090142;28;20079;-41
2023/01/28 08:49:10;;;;;;;19.38;8.70;;;1.30;99.90;;;;;;5088586;28;20515;-41
2023/01/28 08:51:35;;;;;;;13.75;6.35;;;1.50;99.90;;;;;;5085634;28;20063;-46
2023/01/28 08:54:01;;;;;;;14.82;6.45;;;1.60;99.90;;;;;;5086687;28;20073;-46
2023/01/28 08:56:27;;;;;;;11.20;6.07;;;1.70;99.90;;;;;;5090936;28;20032;-41
2023/01/28 08:58:53;;;;;;;11.80;5.70;;;1.70;99.90;;;;;;5085150;28;20377;-58
2023/01/28 09:01:18;;;;;;;12.80;6.15;;;1.70;99.90;;;;;;5089429;28;20052;-40
2023/01/28 09:03:44;;;;;;;13.38;5.88;;;1.70;99.90;;;;;;5089203;28;20473;-39
2023/01/28 09:06:10;;;;;;;13.00;6.60;;;1.70;99.90;;;;;;5071974;28;20036;-41
2023/01/28 09:08:35;;;;;;;11.38;5.40;;;1.60;99.90;;;;;;5088665;28;20089;-43
2023/01/28 09:11:01;;;;;;;8.30;4.22;;;1.50;99.90;;;;;;5085179;28;20040;-43
2023/01/28 09:13:27;;;;;;;10.05;5.25;;;1.50;99.90;;;;;;5087818;28;20181;-41
2023/01/28 09:15:53;;;;;;;9.38;4.88;;;1.50;99.90;;;;;;5082005;28;20069;-43
2023/01/28 09:18:19;;;;;;;11.13;5.28;;;1.50;99.90;;;;;;5089082;28;20453;-41
2023/01/28 09:20:44;;;;;;;9.10;4.35;;;1.60;99.90;;;;;;5087724;28;20567;-38
2023/01/28 09:23:10;;;;;;;10.35;4.78;;;1.70;99.90;;;;;;5089169;28;20036;-40
2023/01/28 09:25:36;;;;;;;9.98;5.15;;;1.80;99.90;;;;;;5086997;28;20387;-42
2023/01/28 09:28:02;;;;;;;7.95;4.22;;;1.80;99.90;;;;;;5088228;28;20051;-50
2023/01/28 09:30:28;;;;;;;10.65;4.78;;;1.80;99.90;;;;;;5089613;28;20558;-41
2023/01/28 09:32:56;;;;;;;9.52;5.05;;;1.80;99.90;;;;;;5079984;28;20047;-38
2023/01/28 09:35:22;;;;;;;9.70;5.05;;;1.90;99.90;;;;;;5071772;28;20116;-38
2023/01/28 09:37:48;;;;;;;10.82;4.97;;;1.90;99.90;;;;;;5074207;28;20435;-39
2023/01/28 09:40:19;;;;;;;10.18;5.40;;;2.00;99.90;;;;;;5087123;28;20516;-42
2023/01/28 09:42:57;;;;;;;9.95;5.15;;;2.00;99.90;;;;;;5055087;28;20047;-41
2023/01/28 09:45:40;;;;;;;10.07;5.20;;;2.10;99.90;;;;;;5079890;28;20497;-40
2023/01/28 09:48:21;;;;;;;10.05;5.15;;;2.10;99.90;;;;;;5079007;28;20042;-41
2023/01/28 09:50:51;;;;;;;11.93;5.00;;;2.20;99.90;;;;;;5080089;28;20115;-43
2023/01/28 09:53:44;;;;;;;9.98;5.07;;;2.20;99.90;;;;;;5081757;28;20048;-42
2023/01/28 09:56:25;;;;;;;11.57;5.40;;;2.20;99.90;;;;;;5077974;28;20048;-40
2023/01/28 09:58:51;;;;;;;9.80;5.03;;;2.30;99.90;;;;;;5086336;28;20485;-46
2023/01/28 10:01:45;;;;;;;9.55;4.55;;;2.40;99.90;;;;;;5078393;28;20512;-47
2023/01/28 10:04:31;;;;;;;12.13;5.35;;;2.40;99.90;;;;;;5077967;28;20508;-44
2023/01/28 10:07:24;;;;;;;7.40;4.00;;;2.40;99.90;;;;;;5080452;28;20036;-47
2023/01/28 10:10:08;;;;;;;9.88;5.03;;;2.50;99.90;;;;;;5081579;28;20782;-43
2023/01/28 10:12:57;;;;;;;10.48;4.95;;;2.50;99.90;;;;;;5081670;28;20042;-45
2023/01/28 10:15:47;;;;;;;10.70;4.45;;;2.50;99.90;;;;;;5077471;28;20044;-40
2023/01/28 10:18:13;;;;;;;9.52;4.45;;;2.60;99.90;;;;;;5084903;28;20044;-42
2023/01/28 10:20:45;;;;;;;9.38;4.55;;;2.60;99.90;;;;;;5085747;28;20031;-44
2023/01/28 10:23:35;;;;;;;14.00;4.80;;;2.60;99.90;;;;;;5077101;28;20055;-44
2023/01/28 10:26:10;;;;;;;8.70;4.38;;;2.70;99.90;;;;;;5083591;28;20093;-56
2023/01/28 10:28:36;;;;;;;8.55;4.07;;;2.70;99.90;;;;;;5081720;28;20044;-47
2023/01/28 10:31:01;;;;;;;9.45;4.70;;;2.70;99.90;;;;;;5083432;28;20032;-45
2023/01/28 10:33:27;;;;;;;8.93;4.65;;;2.80;99.90;;;;;;5085359;28;20054;-47
2023/01/28 10:35:57;;;;;;;10.45;4.75;;;2.80;99.90;;;;;;5081899;28;20044;-42
2023/01/28 10:38:24;;;;;;;9.07;4.78;;;2.80;99.90;;;;;;5082435;28;20488;-43
2023/01/28 10:40:50;;;;;;;7.80;4.30;;;2.90;99.90;;;;;;5077705;28;20028;-42
2023/01/28 10:43:20;;;;;;;9.73;4.90;;;2.90;99.90;;;;;;5076114;28;20135;-45
2023/01/28 10:45:57;;;;;;;9.07;4.93;;;3.00;99.90;;;;;;5082093;28;20051;-45
2023/01/28 10:48:31;;;;;;;11.10;4.65;;;3.00;99.90;;;;;;5079319;28;20134;-45
2023/01/28 10:51:01;;;;;;;9.05;4.10;;;3.10;99.90;;;;;;5081383;28;20067;-40
2023/01/28 10:53:53;;;;;;;7.28;3.20;;;3.20;99.90;;;;;;5033091;28;20095;-43
2023/01/28 10:56:27;;;;;;;7.70;4.18;;;3.30;99.90;;;;;;5033393;28;20380;-44
2023/01/28 10:59:02;;;;;;;8.65;4.00;;;3.30;99.90;;;;;;5040493;28;20486;-46
2023/01/28 11:01:44;;;;;;;8.75;4.50;;;3.30;99.90;;;;;;5044040;28;20071;-47
2023/01/28 11:04:20;;;;;;;7.72;4.03;;;3.30;99.90;;;;;;5031517;28;20041;-42
2023/01/28 11:07:00;;;;;;;9.02;3.95;;;3.40;99.90;;;;;;5035696;28;20498;-42
2023/01/28 11:09:30;;;;;;;7.95;3.85;;;3.50;99.90;;;;;;5032550;28;20497;-38
2023/01/28 11:11:57;;;;;;;9.00;4.25;;;3.50;99.90;;;;;;5030163;28;20526;-42
2023/01/28 11:14:25;;;;;;;8.63;3.92;;;3.60;99.90;;;;;;5040333;28;20056;-43
2023/01/28 11:16:53;;;;;;;7.20;3.72;;;3.70;99.90;;;;;;5034807;28;20044;-42
2023/01/28 11:19:24;;;;;;;8.27;4.20;;;3.80;99.90;;;;;;5039016;28;20465;-42
2023/01/28 11:21:55;;;;;;;9.18;4.05;;;4.00;99.90;;;;;;5024593;28;20033;-46
2023/01/28 11:24:32;;;;;;;8.18;3.30;;;4.40;99.90;;;;;;5034386;28;20111;-41
2023/01/28 11:27:09;;;;;;;7.18;3.17;;;4.90;99.90;;;;;;5035243;28;20063;-45
2023/01/28 11:29:38;;;;;;;7.53;3.75;;;5.30;98.40;;;;;;5037761;28;20044;-42
2023/01/28 11:32:06;;;;;;;8.25;4.15;;;5.60;97.60;;;;;;5032429;28;20041;-54
2023/01/28 11:34:33;;;;;;;8.27;4.30;;;5.80;96.30;;;;;;5035659;28;20033;-48
2023/01/28 11:37:17;;;;;;;7.95;3.80;;;6.10;96.10;;;;;;5040343;28;20052;-46
2023/01/28 11:39:43;;;;;;;7.25;3.35;;;6.40;95.10;;;;;;5036223;28;20140;-49
2023/01/28 11:42:16;;;;;;;6.50;3.42;;;6.80;95.00;;;;;;5037559;28;20392;-44
2023/01/28 11:44:42;;;;;;;7.60;3.47;;;7.00;93.40;;;;;;5038555;28;20059;-48
2023/01/28 11:47:27;;;;;;;7.32;3.63;;;7.30;92.00;;;;;;5032808;28;20094;-46
2023/01/28 11:50:08;;;;;;;7.18;3.42;;;7.60;89.80;;;;;;5036445;28;20036;-47
2023/01/28 11:52:45;;;;;;;6.82;3.47;;;7.90;91.90;;;;;;5059384;28;20461;-48
2023/01/28 11:55:33;;;;;;;5.15;2.90;;;8.20;89.60;;;;;;5082372;28;20071;-45
2023/01/28 11:58:24;;;;;;;6.43;2.88;;;8.50;84.90;;;;;;5082733;28;20496;-46
2023/01/28 12:01:06;;;;;;;5.18;2.95;;;8.40;89.00;;;;;;5078164;28;20134;-44
2023/01/28 12:03:41;;;;;;;6.78;3.17;;;8.30;89.80;;;;;;5081542;28;20493;-45
2023/01/28 12:06:34;;;;;;;6.28;3.78;;;8.70;84.20;;;;;;5078256;28;20040;-46
2023/01/28 12:09:15;;;;;;;6.60;3.50;;;9.10;86.20;;;;;;5076736;28;20477;-47
2023/01/28 12:12:24;;;;;;;6.72;3.63;;;9.70;88.20;;;;;;5076235;28;20040;-45
2023/01/28 12:15:20;;;;;;;7.30;2.97;;;9.90;84.50;;;;;;5082333;28;20033;-45
2023/01/28 12:18:17;;;;;;;7.60;3.42;;;9.90;77.50;;;;;;5082626;28;20076;-39
2023/01/28 12:20:57;;;;;;;5.93;3.40;;;9.60;78.70;;;;;;5079396;28;20040;-39
2023/01/28 12:23:44;;;;;;;6.53;3.95;;;9.50;83.80;;;;;;5071799;28;20044;-38
2023/01/28 12:26:15;;;;;;;6.20;3.03;;;9.80;79.40;;;;;;5061334;28;20090;-39
2023/01/28 12:29:18;;;;;;;6.32;3.25;;;10.10;81.30;;;;;;5079704;28;20561;-38
2023/01/28 12:32:02;;;;;;;5.18;2.92;;;10.20;78.10;;;;;;5074443;28;20520;-38
2023/01/28 12:34:47;;;;;;;6.43;3.20;;;10.70;75.90;;;;;;5080518;28;20050;-48
2023/01/28 12:37:40;;;;;;;6.45;3.22;;;11.30;74.70;;;;;;5085091;28;20587;-38
2023/01/28 12:40:28;;;;;;;10.30;5.07;;;11.10;72.80;;;;;;5081361;28;20089;-38
2023/01/28 12:43:25;;;;;;;8.88;4.72;;;9.80;70.80;;;;;;5075528;28;20058;-42
2023/01/28 12:45:56;;;;;;;7.75;3.88;;;8.90;79.90;;;;;;5081344;28;20055;-42
2023/01/28 12:48:29;;;;;;;8.30;4.43;;;8.00;83.90;;;;;;5085442;28;20051;-46
2023/01/28 12:51:06;;;;;;;8.50;3.85;;;7.50;88.40;;;;;;5085879;28;20512;-44
2023/01/28 12:53:40;;;;;;;8.30;3.65;;;7.20;90.10;;;;;;5081425;28;20714;-46
2023/01/28 12:56:18;;;;;;;7.72;4.45;;;7.00;90.20;;;;;;5081455;28;20054;-45
2023/01/28 12:58:50;;;;;;;9.55;4.70;;;6.70;90.50;;;;;;5084695;28;20119;-47
2023/01/28 13:01:24;;;;;;;10.30;5.05;;;6.50;92.00;;;;;;5083679;28;20063;-44
2023/01/28 13:04:08;;;;;;;8.35;4.10;;;6.40;91.70;;;;;;5080436;28;20055;-48
2023/01/28 13:06:45;;;;;;;8.52;4.35;;;6.20;92.10;;;;;;5078568;28;20086;-44
2023/01/28 13:09:19;;;;;;;9.10;4.15;;;6.10;92.80;;;;;;5083063;28;20048;-47
2023/01/28 13:11:48;;;;;;;8.60;4.30;;;6.30;93.50;;;;;;5079546;28;20287;-43
2023/01/28 13:14:15;;;;;;;7.50;3.90;;;7.40;93.10;;;;;;5079679;28;20043;-41
2023/01/28 13:16:40;;;;;;;7.55;3.88;;;8.50;90.40;;;;;;5085226;28;20051;-41
2023/01/28 13:19:18;;;;;;;6.07;3.25;;;9.20;85.50;;;;;;5083277;28;20052;-43
2023/01/28 13:21:45;;;;;;;4.97;2.47;;;9.90;82.30;;;;;;5085765;28;20528;-47
2023/01/28 13:24:14;;;;;;;6.65;3.85;;;10.40;82.30;;;;;;5080832;28;20036;-41
2023/01/28 13:26:54;;;;;;;8.90;4.03;;;10.80;80.60;;;;;;5087767;28;20126;-43
2023/01/28 13:29:23;;;;;;;5.72;3.28;;;11.20;75.80;;;;;;5087032;28;20042;-42
2023/01/28 13:31:55;;;;;;;7.93;2.72;;;11.20;72.00;;;;;;5089246;28;20039;-42
2023/01/28 13:34:35;;;;;;;5.05;3.10;;;11.20;73.00;;;;;;5077734;28;20122;-42
2023/01/28 13:37:16;;;;;;;6.70;3.17;;;11.50;70.80;;;;;;5086887;28;20044;-42
2023/01/28 13:39:51;;;;;;;6.22;2.97;;;11.60;71.50;;;;;;5075489;28;20044;-45
2023/01/28 13:42:21;;;;;;;9.45;4.80;;;11.60;71.50;;;;;;5083967;28;20069;-44